sensor_id;sensor_type;location;lat;lon;timestamp;P1;durP1;ratioP1;P2;durP2;ratioP2
40601;SDS011;26310;50.278;19.032;2023-06-22T00:04:15;9.43;;;6.85;;
40601;SDS011;26310;50.278;19.032;2023-06-22T00:09:18;10.23;;;6.93;;
40601;SDS011;26310;50.278;19.032;2023-06-22T00:14:21;11.05;;;7.00;;
40601;SDS011;26310;50.278;19.032;2023-06-22T00:19:24;11.15;;;6.63;;
40601;SDS011;26310;50.278;19.032;2023-06-22T00:24:27;10.30;;;6.57;;
40601;SDS011;26310;50.278;19.032;2023-06-22T00:29:30;14.00;;;7.10;;
40601;SDS011;26310;50.278;19.032;2023-06-22T00:34:33;91.50;;;12.02;;
40601;SDS011;26310;50.278;19.032;2023-06-22T00:39:36;29.48;;;8.00;;
40601;SDS011;26310;50.278;19.032;2023-06-22T00:44:39;13.65;;;6.88;;
40601;SDS011;26310;50.278;19.032;2023-06-22T00:49:42;13.07;;;7.88;;
40601;SDS011;26310;50.278;19.032;2023-06-22T00:54:45;12.50;;;7.68;;
40601;SDS011;26310;50.278;19.032;2023-06-22T00:59:50;11.20;;;7.80;;
40601;SDS011;26310;50.278;19.032;2023-06-22T01:04:55;13.82;;;7.60;;
40601;SDS011;26310;50.278;19.032;2023-06-22T01:10:07;10.75;;;6.57;;
40601;SDS011;26310;50.278;19.032;2023-06-22T01:15:31;11.02;;;6.88;;
40601;SDS011;26310;50.278;19.032;2023-06-22T01:20:41;13.38;;;7.20;;
40601;SDS011;26310;50.278;19.032;2023-06-22T01:25:47;14.68;;;6.60;;
40601;SDS011;26310;50.278;19.032;2023-06-22T01:31:10;10.48;;;6.93;;
40601;SDS011;26310;50.278;19.032;2023-06-22T01:36:16;14.85;;;6.80;;
40601;SDS011;26310;50.278;19.032;2023-06-22T01:41:20;10.45;;;7.15;;
40601;SDS011;26310;50.278;19.032;2023-06-22T01:46:23;13.88;;;6.85;;
40601;SDS011;26310;50.278;19.032;2023-06-22T01:51:27;14.65;;;7.95;;
40601;SDS011;26310;50.278;19.032;2023-06-22T01:56:30;11.65;;;6.70;;
40601;SDS011;26310;50.278;19.032;2023-06-22T02:01:35;9.82;;;6.75;;
40601;SDS011;26310;50.278;19.032;2023-06-22T02:06:56;10.70;;;7.13;;
40601;SDS011;26310;50.278;19.032;2023-06-22T02:12:01;11.07;;;6.93;;
40601;SDS011;26310;50.278;19.032;2023-06-22T02:17:05;11.20;;;6.55;;
40601;SDS011;26310;50.278;19.032;2023-06-22T02:22:09;8.75;;;6.43;;
40601;SDS011;26310;50.278;19.032;2023-06-22T02:27:12;11.93;;;6.60;;
40601;SDS011;26310;50.278;19.032;2023-06-22T02:32:15;10.88;;;7.00;;
40601;SDS011;26310;50.278;19.032;2023-06-22T02:37:19;11.10;;;7.35;;
40601;SDS011;26310;50.278;19.032;2023-06-22T02:42:22;14.23;;;6.97;;
40601;SDS011;26310;50.278;19.032;2023-06-22T02:47:25;11.13;;;6.82;;
40601;SDS011;26310;50.278;19.032;2023-06-22T02:52:28;12.43;;;6.40;;
40601;SDS011;26310;50.278;19.032;2023-06-22T02:57:31;15.73;;;7.55;;
40601;SDS011;26310;50.278;19.032;2023-06-22T03:02:34;12.43;;;6.90;;
40601;SDS011;26310;50.278;19.032;2023-06-22T03:07:37;12.50;;;7.60;;
40601;SDS011;26310;50.278;19.032;2023-06-22T03:12:40;11.82;;;7.00;;
40601;SDS011;26310;50.278;19.032;2023-06-22T03:17:44;15.65;;;8.02;;
40601;SDS011;26310;50.278;19.032;2023-06-22T03:22:48;15.45;;;7.60;;
40601;SDS011;26310;50.278;19.032;2023-06-22T03:27:51;14.05;;;7.00;;
40601;SDS011;26310;50.278;19.032;2023-06-22T03:32:53;13.80;;;7.55;;
40601;SDS011;26310;50.278;19.032;2023-06-22T03:37:56;14.27;;;6.75;;
40601;SDS011;26310;50.278;19.032;2023-06-22T03:42:59;14.50;;;7.25;;
40601;SDS011;26310;50.278;19.032;2023-06-22T03:48:02;13.32;;;6.95;;
40601;SDS011;26310;50.278;19.032;2023-06-22T03:53:05;9.07;;;6.97;;
40601;SDS011;26310;50.278;19.032;2023-06-22T03:58:08;11.98;;;7.47;;
40601;SDS011;26310;50.278;19.032;2023-06-22T04:03:11;16.40;;;7.18;;
40601;SDS011;26310;50.278;19.032;2023-06-22T04:08:15;14.75;;;7.03;;
40601;SDS011;26310;50.278;19.032;2023-06-22T04:13:18;11.00;;;7.22;;
40601;SDS011;26310;50.278;19.032;2023-06-22T04:18:21;15.95;;;8.60;;
40601;SDS011;26310;50.278;19.032;2023-06-22T04:23:24;14.98;;;8.32;;
40601;SDS011;26310;50.278;19.032;2023-06-22T04:28:27;18.27;;;10.30;;
40601;SDS011;26310;50.278;19.032;2023-06-22T04:33:30;17.92;;;12.20;;
40601;SDS011;26310;50.278;19.032;2023-06-22T04:38:33;23.02;;;14.73;;
40601;SDS011;26310;50.278;19.032;2023-06-22T04:43:36;20.30;;;13.80;;
40601;SDS011;26310;50.278;19.032;2023-06-22T04:48:38;19.70;;;15.55;;
40601;SDS011;26310;50.278;19.032;2023-06-22T04:53:41;24.08;;;16.52;;
40601;SDS011;26310;50.278;19.032;2023-06-22T04:58:44;19.98;;;14.85;;
40601;SDS011;26310;50.278;19.032;2023-06-22T05:03:47;27.52;;;17.83;;
40601;SDS011;26310;50.278;19.032;2023-06-22T05:08:52;25.45;;;18.35;;
40601;SDS011;26310;50.278;19.032;2023-06-22T05:13:59;25.95;;;18.92;;
40601;SDS011;26310;50.278;19.032;2023-06-22T05:19:02;23.83;;;18.45;;
40601;SDS011;26310;50.278;19.032;2023-06-22T05:24:05;30.67;;;17.55;;
40601;SDS011;26310;50.278;19.032;2023-06-22T05:29:08;25.85;;;18.27;;
40601;SDS011;26310;50.278;19.032;2023-06-22T05:34:11;24.40;;;18.98;;
40601;SDS011;26310;50.278;19.032;2023-06-22T05:39:14;24.08;;;17.50;;
40601;SDS011;26310;50.278;19.032;2023-06-22T05:44:18;23.85;;;16.98;;
40601;SDS011;26310;50.278;19.032;2023-06-22T05:49:21;23.77;;;18.25;;
40601;SDS011;26310;50.278;19.032;2023-06-22T05:54:24;20.98;;;16.38;;
40601;SDS011;26310;50.278;19.032;2023-06-22T05:59:29;16.65;;;14.57;;
40601;SDS011;26310;50.278;19.032;2023-06-22T06:04:32;24.02;;;19.48;;
40601;SDS011;26310;50.278;19.032;2023-06-22T06:09:34;21.23;;;18.20;;
40601;SDS011;26310;50.278;19.032;2023-06-22T06:14:37;22.52;;;17.77;;
40601;SDS011;26310;50.278;19.032;2023-06-22T06:19:40;19.50;;;17.40;;
40601;SDS011;26310;50.278;19.032;2023-06-22T06:24:43;19.33;;;16.83;;
40601;SDS011;26310;50.278;19.032;2023-06-22T06:29:47;23.40;;;18.05;;
40601;SDS011;26310;50.278;19.032;2023-06-22T06:34:50;23.23;;;17.45;;
40601;SDS011;26310;50.278;19.032;2023-06-22T06:39:53;20.90;;;16.92;;
40601;SDS011;26310;50.278;19.032;2023-06-22T06:44:56;17.38;;;14.80;;
40601;SDS011;26310;50.278;19.032;2023-06-22T06:49:59;16.30;;;14.13;;
40601;SDS011;26310;50.278;19.032;2023-06-22T06:55:01;18.77;;;14.02;;
40601;SDS011;26310;50.278;19.032;2023-06-22T07:00:14;21.58;;;15.23;;
40601;SDS011;26310;50.278;19.032;2023-06-22T07:05:31;13.05;;;9.73;;
40601;SDS011;26310;50.278;19.032;2023-06-22T07:10:34;17.48;;;13.10;;
40601;SDS011;26310;50.278;19.032;2023-06-22T07:15:37;37.05;;;17.02;;
40601;SDS011;26310;50.278;19.032;2023-06-22T07:20:40;12.93;;;10.95;;
40601;SDS011;26310;50.278;19.032;2023-06-22T07:25:43;14.75;;;10.93;;
40601;SDS011;26310;50.278;19.032;2023-06-22T07:30:46;19.05;;;11.20;;
40601;SDS011;26310;50.278;19.032;2023-06-22T07:35:49;14.25;;;9.52;;
40601;SDS011;26310;50.278;19.032;2023-06-22T07:40:54;8.52;;;7.65;;
40601;SDS011;26310;50.278;19.032;2023-06-22T07:45:56;10.18;;;8.73;;
40601;SDS011;26310;50.278;19.032;2023-06-22T07:50:59;12.10;;;9.30;;
40601;SDS011;26310;50.278;19.032;2023-06-22T07:56:02;12.63;;;8.52;;
40601;SDS011;26310;50.278;19.032;2023-06-22T08:01:08;15.50;;;7.43;;
40601;SDS011;26310;50.278;19.032;2023-06-22T08:06:12;11.45;;;8.00;;
40601;SDS011;26310;50.278;19.032;2023-06-22T08:11:15;7.55;;;6.72;;
40601;SDS011;26310;50.278;19.032;2023-06-22T08:16:18;10.80;;;7.25;;
40601;SDS011;26310;50.278;19.032;2023-06-22T08:21:21;7.43;;;6.55;;
40601;SDS011;26310;50.278;19.032;2023-06-22T08:26:23;7.70;;;6.68;;
40601;SDS011;26310;50.278;19.032;2023-06-22T08:31:26;7.43;;;6.60;;
40601;SDS011;26310;50.278;19.032;2023-06-22T08:36:29;8.93;;;7.18;;
40601;SDS011;26310;50.278;19.032;2023-06-22T08:41:34;7.25;;;5.97;;
40601;SDS011;26310;50.278;19.032;2023-06-22T08:46:37;7.63;;;6.10;;
40601;SDS011;26310;50.278;19.032;2023-06-22T08:51:42;7.43;;;4.97;;
40601;SDS011;26310;50.278;19.032;2023-06-22T08:56:47;8.10;;;6.47;;
40601;SDS011;26310;50.278;19.032;2023-06-22T09:01:50;11.27;;;7.55;;
40601;SDS011;26310;50.278;19.032;2023-06-22T09:06:52;8.30;;;6.88;;
40601;SDS011;26310;50.278;19.032;2023-06-22T09:11:55;16.95;;;7.60;;
40601;SDS011;26310;50.278;19.032;2023-06-22T09:16:58;7.57;;;6.65;;
40601;SDS011;26310;50.278;19.032;2023-06-22T09:22:01;7.32;;;6.60;;
40601;SDS011;26310;50.278;19.032;2023-06-22T09:27:05;10.00;;;6.90;;
40601;SDS011;26310;50.278;19.032;2023-06-22T09:32:08;6.38;;;5.65;;
40601;SDS011;26310;50.278;19.032;2023-06-22T09:37:11;6.65;;;5.63;;
40601;SDS011;26310;50.278;19.032;2023-06-22T09:42:14;6.45;;;5.82;;
40601;SDS011;26310;50.278;19.032;2023-06-22T09:47:17;9.27;;;6.70;;
40601;SDS011;26310;50.278;19.032;2023-06-22T09:52:20;7.78;;;6.28;;
40601;SDS011;26310;50.278;19.032;2023-06-22T09:57:31;6.65;;;5.28;;
40601;SDS011;26310;50.278;19.032;2023-06-22T10:02:34;8.80;;;7.13;;
40601;SDS011;26310;50.278;19.032;2023-06-22T10:07:37;7.88;;;7.07;;
40601;SDS011;26310;50.278;19.032;2023-06-22T10:12:48;7.25;;;6.53;;
40601;SDS011;26310;50.278;19.032;2023-06-22T10:17:57;6.15;;;5.25;;
40601;SDS011;26310;50.278;19.032;2023-06-22T10:23:00;6.15;;;5.40;;
40601;SDS011;26310;50.278;19.032;2023-06-22T10:28:03;6.28;;;5.22;;
40601;SDS011;26310;50.278;19.032;2023-06-22T10:33:06;10.35;;;6.63;;
40601;SDS011;26310;50.278;19.032;2023-06-22T10:38:12;8.43;;;6.10;;
40601;SDS011;26310;50.278;19.032;2023-06-22T10:43:15;10.23;;;7.10;;
40601;SDS011;26310;50.278;19.032;2023-06-22T10:48:17;6.28;;;5.32;;
40601;SDS011;26310;50.278;19.032;2023-06-22T10:53:20;8.07;;;7.28;;
40601;SDS011;26310;50.278;19.032;2023-06-22T10:58:23;8.15;;;6.03;;
40601;SDS011;26310;50.278;19.032;2023-06-22T11:03:26;8.88;;;7.00;;
40601;SDS011;26310;50.278;19.032;2023-06-22T11:08:29;9.10;;;6.60;;
40601;SDS011;26310;50.278;19.032;2023-06-22T11:13:32;7.85;;;5.97;;
40601;SDS011;26310;50.278;19.032;2023-06-22T11:18:35;7.15;;;5.28;;
40601;SDS011;26310;50.278;19.032;2023-06-22T11:23:38;6.90;;;5.55;;
40601;SDS011;26310;50.278;19.032;2023-06-22T11:28:41;6.95;;;5.68;;
40601;SDS011;26310;50.278;19.032;2023-06-22T11:33:44;9.63;;;7.22;;
40601;SDS011;26310;50.278;19.032;2023-06-22T11:38:47;8.57;;;5.50;;
40601;SDS011;26310;50.278;19.032;2023-06-22T11:43:50;7.00;;;6.30;;
40601;SDS011;26310;50.278;19.032;2023-06-22T11:48:53;6.25;;;5.47;;
40601;SDS011;26310;50.278;19.032;2023-06-22T11:53:56;6.28;;;5.68;;
40601;SDS011;26310;50.278;19.032;2023-06-22T11:58:59;8.27;;;6.05;;
40601;SDS011;26310;50.278;19.032;2023-06-22T12:04:02;5.82;;;5.22;;
40601;SDS011;26310;50.278;19.032;2023-06-22T12:09:07;7.13;;;6.10;;
40601;SDS011;26310;50.278;19.032;2023-06-22T12:14:10;8.35;;;6.85;;
40601;SDS011;26310;50.278;19.032;2023-06-22T12:19:13;8.95;;;6.75;;
40601;SDS011;26310;50.278;19.032;2023-06-22T12:24:16;5.97;;;5.25;;
40601;SDS011;26310;50.278;19.032;2023-06-22T12:29:19;8.45;;;5.40;;
40601;SDS011;26310;50.278;19.032;2023-06-22T12:34:22;9.30;;;6.82;;
40601;SDS011;26310;50.278;19.032;2023-06-22T12:39:25;7.40;;;5.57;;
40601;SDS011;26310;50.278;19.032;2023-06-22T12:44:27;8.02;;;7.22;;
40601;SDS011;26310;50.278;19.032;2023-06-22T12:49:30;6.50;;;5.90;;
40601;SDS011;26310;50.278;19.032;2023-06-22T12:54:33;7.70;;;6.43;;
40601;SDS011;26310;50.278;19.032;2023-06-22T12:59:55;6.18;;;5.25;;
40601;SDS011;26310;50.278;19.032;2023-06-22T13:05:01;7.75;;;5.55;;
40601;SDS011;26310;50.278;19.032;2023-06-22T13:10:04;6.88;;;5.88;;
40601;SDS011;26310;50.278;19.032;2023-06-22T13:15:08;8.57;;;6.63;;
40601;SDS011;26310;50.278;19.032;2023-06-22T13:20:11;7.40;;;6.60;;
40601;SDS011;26310;50.278;19.032;2023-06-22T13:25:13;6.50;;;5.90;;
40601;SDS011;26310;50.278;19.032;2023-06-22T13:30:20;6.75;;;5.97;;
40601;SDS011;26310;50.278;19.032;2023-06-22T13:35:23;8.80;;;7.28;;
40601;SDS011;26310;50.278;19.032;2023-06-22T13:40:26;9.32;;;7.60;;
40601;SDS011;26310;50.278;19.032;2023-06-22T13:45:29;7.22;;;5.32;;
40601;SDS011;26310;50.278;19.032;2023-06-22T13:50:32;6.80;;;6.10;;
40601;SDS011;26310;50.278;19.032;2023-06-22T13:55:35;7.38;;;6.38;;
40601;SDS011;26310;50.278;19.032;2023-06-22T14:00:38;7.57;;;6.85;;
40601;SDS011;26310;50.278;19.032;2023-06-22T14:05:41;7.05;;;5.75;;
40601;SDS011;26310;50.278;19.032;2023-06-22T14:10:44;8.05;;;6.30;;
40601;SDS011;26310;50.278;19.032;2023-06-22T14:15:47;9.73;;;7.47;;
40601;SDS011;26310;50.278;19.032;2023-06-22T14:20:50;11.10;;;8.98;;
40601;SDS011;26310;50.278;19.032;2023-06-22T14:25:53;8.82;;;7.82;;
40601;SDS011;26310;50.278;19.032;2023-06-22T14:30:56;9.77;;;7.63;;
40601;SDS011;26310;50.278;19.032;2023-06-22T14:35:59;8.00;;;6.97;;
40601;SDS011;26310;50.278;19.032;2023-06-22T14:41:02;7.82;;;6.43;;
40601;SDS011;26310;50.278;19.032;2023-06-22T14:46:15;7.97;;;7.05;;
40601;SDS011;26310;50.278;19.032;2023-06-22T14:51:22;7.43;;;6.25;;
40601;SDS011;26310;50.278;19.032;2023-06-22T14:56:25;8.13;;;6.80;;
40601;SDS011;26310;50.278;19.032;2023-06-22T15:01:27;7.05;;;6.05;;
40601;SDS011;26310;50.278;19.032;2023-06-22T15:06:31;6.80;;;6.00;;
40601;SDS011;26310;50.278;19.032;2023-06-22T15:11:34;6.85;;;6.15;;
40601;SDS011;26310;50.278;19.032;2023-06-22T15:16:37;14.55;;;7.57;;
40601;SDS011;26310;50.278;19.032;2023-06-22T15:21:40;6.93;;;6.22;;
40601;SDS011;26310;50.278;19.032;2023-06-22T15:26:42;10.93;;;6.53;;
40601;SDS011;26310;50.278;19.032;2023-06-22T15:31:45;6.45;;;5.85;;
40601;SDS011;26310;50.278;19.032;2023-06-22T15:36:48;6.93;;;6.13;;
40601;SDS011;26310;50.278;19.032;2023-06-22T15:41:53;8.90;;;6.07;;
40601;SDS011;26310;50.278;19.032;2023-06-22T15:46:56;6.95;;;6.25;;
40601;SDS011;26310;50.278;19.032;2023-06-22T15:51:59;7.85;;;6.15;;
40601;SDS011;26310;50.278;19.032;2023-06-22T15:57:02;6.95;;;6.22;;
40601;SDS011;26310;50.278;19.032;2023-06-22T16:02:05;9.07;;;6.47;;
40601;SDS011;26310;50.278;19.032;2023-06-22T16:07:09;8.02;;;6.00;;
40601;SDS011;26310;50.278;19.032;2023-06-22T16:12:13;6.10;;;5.50;;
40601;SDS011;26310;50.278;19.032;2023-06-22T16:17:16;8.25;;;6.28;;
40601;SDS011;26310;50.278;19.032;2023-06-22T16:22:18;6.55;;;5.53;;
40601;SDS011;26310;50.278;19.032;2023-06-22T16:27:23;7.03;;;5.53;;
40601;SDS011;26310;50.278;19.032;2023-06-22T16:32:26;6.05;;;5.45;;
40601;SDS011;26310;50.278;19.032;2023-06-22T16:37:29;6.20;;;5.60;;
40601;SDS011;26310;50.278;19.032;2023-06-22T16:42:32;6.15;;;5.55;;
40601;SDS011;26310;50.278;19.032;2023-06-22T16:47:36;6.13;;;5.53;;
40601;SDS011;26310;50.278;19.032;2023-06-22T16:52:39;6.38;;;5.78;;
40601;SDS011;26310;50.278;19.032;2023-06-22T16:57:42;6.15;;;5.55;;
40601;SDS011;26310;50.278;19.032;2023-06-22T17:02:48;7.38;;;5.75;;
40601;SDS011;26310;50.278;19.032;2023-06-22T17:07:52;6.40;;;5.55;;
40601;SDS011;26310;50.278;19.032;2023-06-22T17:12:55;6.20;;;5.60;;
40601;SDS011;26310;50.278;19.032;2023-06-22T17:17:58;6.60;;;5.95;;
40601;SDS011;26310;50.278;19.032;2023-06-22T17:23:02;7.57;;;6.28;;
40601;SDS011;26310;50.278;19.032;2023-06-22T17:28:05;9.48;;;6.15;;
40601;SDS011;26310;50.278;19.032;2023-06-22T17:33:08;6.70;;;5.88;;
40601;SDS011;26310;50.278;19.032;2023-06-22T17:38:16;9.18;;;5.97;;
40601;SDS011;26310;50.278;19.032;2023-06-22T17:43:23;7.40;;;6.57;;
40601;SDS011;26310;50.278;19.032;2023-06-22T17:48:26;6.75;;;5.80;;
40601;SDS011;26310;50.278;19.032;2023-06-22T17:53:32;6.70;;;5.80;;
40601;SDS011;26310;50.278;19.032;2023-06-22T17:58:35;7.30;;;6.20;;
40601;SDS011;26310;50.278;19.032;2023-06-22T18:03:38;9.15;;;6.72;;
40601;SDS011;26310;50.278;19.032;2023-06-22T18:08:41;10.18;;;7.80;;
40601;SDS011;26310;50.278;19.032;2023-06-22T18:13:44;8.18;;;6.50;;
40601;SDS011;26310;50.278;19.032;2023-06-22T18:18:47;7.97;;;6.32;;
40601;SDS011;26310;50.278;19.032;2023-06-22T18:23:50;7.65;;;6.85;;
40601;SDS011;26310;50.278;19.032;2023-06-22T18:28:54;9.55;;;7.28;;
40601;SDS011;26310;50.278;19.032;2023-06-22T18:33:57;7.82;;;7.03;;
40601;SDS011;26310;50.278;19.032;2023-06-22T18:39:01;11.77;;;7.88;;
40601;SDS011;26310;50.278;19.032;2023-06-22T18:49:29;8.48;;;6.55;;
40601;SDS011;26310;50.278;19.032;2023-06-22T18:54:43;9.30;;;7.35;;
40601;SDS011;26310;50.278;19.032;2023-06-22T19:15:32;7.30;;;6.43;;
40601;SDS011;26310;50.278;19.032;2023-06-22T19:20:35;10.40;;;8.15;;
40601;SDS011;26310;50.278;19.032;2023-06-22T19:25:38;8.63;;;7.18;;
40601;SDS011;26310;50.278;19.032;2023-06-22T19:30:47;9.23;;;7.80;;
40601;SDS011;26310;50.278;19.032;2023-06-22T19:35:50;9.98;;;7.60;;
40601;SDS011;26310;50.278;19.032;2023-06-22T19:40:57;8.77;;;6.65;;
40601;SDS011;26310;50.278;19.032;2023-06-22T19:46:01;8.98;;;7.50;;
40601;SDS011;26310;50.278;19.032;2023-06-22T19:51:05;8.20;;;6.43;;
40601;SDS011;26310;50.278;19.032;2023-06-22T19:56:08;8.90;;;7.68;;
40601;SDS011;26310;50.278;19.032;2023-06-22T20:01:11;9.25;;;6.97;;
40601;SDS011;26310;50.278;19.032;2023-06-22T20:06:14;8.93;;;8.02;;
40601;SDS011;26310;50.278;19.032;2023-06-22T20:11:28;9.27;;;8.02;;
40601;SDS011;26310;50.278;19.032;2023-06-22T20:16:31;8.77;;;7.88;;
40601;SDS011;26310;50.278;19.032;2023-06-22T20:21:35;11.30;;;7.88;;
40601;SDS011;26310;50.278;19.032;2023-06-22T20:26:43;11.85;;;8.60;;
40601;SDS011;26310;50.278;19.032;2023-06-22T20:31:46;10.40;;;8.35;;
40601;SDS011;26310;50.278;19.032;2023-06-22T20:36:49;8.73;;;7.82;;
40601;SDS011;26310;50.278;19.032;2023-06-22T20:41:52;12.02;;;8.23;;
40601;SDS011;26310;50.278;19.032;2023-06-22T20:46:56;11.13;;;7.75;;
40601;SDS011;26310;50.278;19.032;2023-06-22T20:51:59;11.27;;;8.48;;
40601;SDS011;26310;50.278;19.032;2023-06-22T20:57:08;10.80;;;8.88;;
40601;SDS011;26310;50.278;19.032;2023-06-22T21:02:11;12.32;;;9.40;;
40601;SDS011;26310;50.278;19.032;2023-06-22T21:07:14;9.63;;;8.20;;
40601;SDS011;26310;50.278;19.032;2023-06-22T21:12:20;10.55;;;9.07;;
40601;SDS011;26310;50.278;19.032;2023-06-22T21:17:23;10.75;;;9.13;;
40601;SDS011;26310;50.278;19.032;2023-06-22T21:22:29;12.60;;;8.63;;
40601;SDS011;26310;50.278;19.032;2023-06-22T21:27:34;11.98;;;8.80;;
40601;SDS011;26310;50.278;19.032;2023-06-22T21:32:38;10.02;;;8.95;;
40601;SDS011;26310;50.278;19.032;2023-06-22T21:37:42;13.15;;;9.75;;
40601;SDS011;26310;50.278;19.032;2023-06-22T21:42:49;13.57;;;9.43;;
40601;SDS011;26310;50.278;19.032;2023-06-22T21:47:52;11.93;;;9.35;;
40601;SDS011;26310;50.278;19.032;2023-06-22T21:52:55;12.65;;;9.88;;
40601;SDS011;26310;50.278;19.032;2023-06-22T21:57:58;13.75;;;9.48;;
40601;SDS011;26310;50.278;19.032;2023-06-22T22:03:00;11.50;;;9.20;;
40601;SDS011;26310;50.278;19.032;2023-06-22T22:08:04;11.82;;;9.45;;
40601;SDS011;26310;50.278;19.032;2023-06-22T22:13:07;13.63;;;9.45;;
40601;SDS011;26310;50.278;19.032;2023-06-22T22:18:13;13.68;;;10.10;;
40601;SDS011;26310;50.278;19.032;2023-06-22T22:23:17;12.98;;;10.18;;
40601;SDS011;26310;50.278;19.032;2023-06-22T22:28:20;14.00;;;10.07;;
40601;SDS011;26310;50.278;19.032;2023-06-22T22:33:24;11.30;;;9.63;;
40601;SDS011;26310;50.278;19.032;2023-06-22T22:38:28;12.50;;;10.43;;
40601;SDS011;26310;50.278;19.032;2023-06-22T22:43:32;12.00;;;9.27;;
40601;SDS011;26310;50.278;19.032;2023-06-22T22:48:35;12.50;;;9.90;;
40601;SDS011;26310;50.278;19.032;2023-06-22T22:53:38;12.35;;;9.68;;
40601;SDS011;26310;50.278;19.032;2023-06-22T22:58:41;10.77;;;9.50;;
40601;SDS011;26310;50.278;19.032;2023-06-22T23:03:44;12.65;;;9.27;;
40601;SDS011;26310;50.278;19.032;2023-06-22T23:08:47;11.88;;;9.95;;
40601;SDS011;26310;50.278;19.032;2023-06-22T23:13:57;11.27;;;9.40;;
40601;SDS011;26310;50.278;19.032;2023-06-22T23:19:00;14.82;;;10.07;;
40601;SDS011;26310;50.278;19.032;2023-06-22T23:24:03;15.27;;;10.95;;
40601;SDS011;26310;50.278;19.032;2023-06-22T23:29:06;15.13;;;10.27;;
40601;SDS011;26310;50.278;19.032;2023-06-22T23:34:09;13.25;;;10.25;;
40601;SDS011;26310;50.278;19.032;2023-06-22T23:39:12;13.85;;;10.48;;
40601;SDS011;26310;50.278;19.032;2023-06-22T23:44:17;13.10;;;10.15;;
40601;SDS011;26310;50.278;19.032;2023-06-22T23:49:20;12.85;;;10.88;;
40601;SDS011;26310;50.278;19.032;2023-06-22T23:54:23;13.35;;;9.75;;
40601;SDS011;26310;50.278;19.032;2023-06-22T23:59:26;12.40;;;10.63;;
